This is the latest recevied weather packets stored in our database for station/object KC3AWA. If no packets are shown the sender has not sent any weather packets the latest 10 day(s).
| Time | Temp. | Humidity | Pressure | Rain* | Wind** | Luminosity | Snow |
|---|---|---|---|---|---|---|---|
| 1777637270 | 2.22° C | 97% | 1013.8 hPa | 0 mm | - | 55 W/m² | - |
| 1777636967 | 2.22° C | 97% | 1013.8 hPa | 0 mm | - | 58 W/m² | - |
| 1777636663 | 2.22° C | 98% | 1013.4 hPa | 0 mm | - | 113 W/m² | - |
| 1777636359 | 2.22° C | 97% | 1013.8 hPa | 0 mm | - | 88 W/m² | - |
| 1777636058 | 2.22° C | 97% | 1013.8 hPa | 0 mm | - | 30 W/m² | - |
| 1777635755 | 2.22° C | 97% | 1013.9 hPa | 0 mm | - | 29 W/m² | - |
| 1777635452 | 2.22° C | 97% | 1013.8 hPa | 0 mm | - | 22 W/m² | - |
| 1777635149 | 1.67° C | 97% | 1013.8 hPa | 0 mm | - | 41 W/m² | - |
| 1777634845 | 1.67° C | 97% | 1013.9 hPa | 0 mm | - | 27 W/m² | - |
| 1777634542 | 1.67° C | 97% | 1014.1 hPa | 0 mm | - | 21 W/m² | - |
| 1777634239 | 1.67° C | 97% | 1014 hPa | 0 mm | - | 18 W/m² | - |
| 1777633935 | 1.67° C | 97% | 1014 hPa | 0 mm | - | 24 W/m² | - |
| 1777633633 | 1.67° C | 97% | 1013.9 hPa | 0 mm | - | 28 W/m² | - |
| 1777633331 | 1.67° C | 97% | 1013.8 hPa | 0 mm | - | 22 W/m² | - |
| 1777633029 | 1.67° C | 97% | 1014 hPa | 0 mm | - | 12 W/m² | - |
| 1777632725 | 1.67° C | 97% | 1014.1 hPa | 0 mm | - | 11 W/m² | - |
| 1777632421 | 1.11° C | 97% | 1013.9 hPa | 0 mm | - | 13 W/m² | - |
| 1777632118 | 1.11° C | 97% | 1013.9 hPa | 0 mm | - | 9 W/m² | - |
| 1777631815 | 1.11° C | 97% | 1014 hPa | 0 mm | - | 5 W/m² | - |
| 1777631514 | 1.11° C | 97% | 1014 hPa | 0 mm | - | 5 W/m² | - |
| 1777631210 | 1.11° C | 97% | 1014.1 hPa | 0 mm | - | 2 W/m² | - |
| 1777630908 | 1.11° C | 97% | 1014.1 hPa | 0 mm | - | 2 W/m² | - |
| 1777630608 | 1.11° C | 97% | 1014.1 hPa | 0 mm | - | 1 W/m² | - |
| 1777630305 | 1.11° C | 97% | 1013.9 hPa | 0 mm | - | 1 W/m² | - |
| 1777630003 | 1.11° C | 97% | 1013.8 hPa | 0 mm | - | 0 W/m² | - |
* Rain latest hour (hover to see other rain measurements)
** Current wind speed in m/s (hover to see current wind gust speed)